sensor_id;sensor_type;location;lat;lon;timestamp;temperature;humidity
22813;DHT22;11573;51.334;3.244;2023-05-20T00:00:44;12.80;99.90
22813;DHT22;11573;51.334;3.244;2023-05-20T00:03:17;12.80;99.90
22813;DHT22;11573;51.334;3.244;2023-05-20T00:05:46;12.80;99.90
22813;DHT22;11573;51.334;3.244;2023-05-20T00:08:13;12.80;99.90
22813;DHT22;11573;51.334;3.244;2023-05-20T00:10:40;12.80;99.90
22813;DHT22;11573;51.334;3.244;2023-05-20T00:13:07;12.80;99.90
22813;DHT22;11573;51.334;3.244;2023-05-20T00:15:34;12.90;99.90
22813;DHT22;11573;51.334;3.244;2023-05-20T00:18:04;12.90;99.90
22813;DHT22;11573;51.334;3.244;2023-05-20T00:20:31;12.90;99.90
22813;DHT22;11573;51.334;3.244;2023-05-20T00:22:58;12.90;99.90
22813;DHT22;11573;51.334;3.244;2023-05-20T00:25:25;12.90;99.90
22813;DHT22;11573;51.334;3.244;2023-05-20T00:27:53;12.90;99.90
22813;DHT22;11573;51.334;3.244;2023-05-20T00:30:19;12.90;99.90
22813;DHT22;11573;51.334;3.244;2023-05-20T00:32:47;12.90;99.90
22813;DHT22;11573;51.334;3.244;2023-05-20T00:35:14;12.90;99.90
22813;DHT22;11573;51.334;3.244;2023-05-20T00:37:41;13.00;99.90
22813;DHT22;11573;51.334;3.244;2023-05-20T00:40:09;12.90;99.90
22813;DHT22;11573;51.334;3.244;2023-05-20T00:42:36;13.00;99.90
22813;DHT22;11573;51.334;3.244;2023-05-20T00:45:03;13.00;99.90
22813;DHT22;11573;51.334;3.244;2023-05-20T00:47:32;13.00;99.90
22813;DHT22;11573;51.334;3.244;2023-05-20T00:50:00;12.90;99.90
22813;DHT22;11573;51.334;3.244;2023-05-20T00:52:31;12.90;99.90
22813;DHT22;11573;51.334;3.244;2023-05-20T00:54:59;12.90;99.90
22813;DHT22;11573;51.334;3.244;2023-05-20T00:57:26;12.90;99.90
22813;DHT22;11573;51.334;3.244;2023-05-20T00:59:53;12.90;99.90
22813;DHT22;11573;51.334;3.244;2023-05-20T01:02:21;12.90;99.90
22813;DHT22;11573;51.334;3.244;2023-05-20T01:04:48;12.90;99.90
22813;DHT22;11573;51.334;3.244;2023-05-20T01:07:16;12.90;99.90
22813;DHT22;11573;51.334;3.244;2023-05-20T01:09:45;12.90;99.90
22813;DHT22;11573;51.334;3.244;2023-05-20T01:12:16;12.90;99.90
22813;DHT22;11573;51.334;3.244;2023-05-20T01:15:10;12.90;99.90
22813;DHT22;11573;51.334;3.244;2023-05-20T01:17:39;12.80;99.90
22813;DHT22;11573;51.334;3.244;2023-05-20T01:20:12;12.80;99.90
22813;DHT22;11573;51.334;3.244;2023-05-20T01:22:47;12.80;99.90
22813;DHT22;11573;51.334;3.244;2023-05-20T01:25:14;12.80;99.90
22813;DHT22;11573;51.334;3.244;2023-05-20T01:27:41;12.80;99.90
22813;DHT22;11573;51.334;3.244;2023-05-20T01:30:09;12.70;99.90
22813;DHT22;11573;51.334;3.244;2023-05-20T01:32:38;12.70;99.90
22813;DHT22;11573;51.334;3.244;2023-05-20T01:35:07;12.70;99.90
22813;DHT22;11573;51.334;3.244;2023-05-20T01:37:37;12.70;99.90
22813;DHT22;11573;51.334;3.244;2023-05-20T01:40:07;12.70;99.90
22813;DHT22;11573;51.334;3.244;2023-05-20T01:42:35;12.70;99.90
22813;DHT22;11573;51.334;3.244;2023-05-20T01:45:03;12.70;99.90
22813;DHT22;11573;51.334;3.244;2023-05-20T01:47:30;12.70;99.90
22813;DHT22;11573;51.334;3.244;2023-05-20T01:49:57;12.70;99.90
22813;DHT22;11573;51.334;3.244;2023-05-20T01:52:26;12.60;99.90
22813;DHT22;11573;51.334;3.244;2023-05-20T01:54:53;12.70;99.90
22813;DHT22;11573;51.334;3.244;2023-05-20T01:57:21;12.70;99.90
22813;DHT22;11573;51.334;3.244;2023-05-20T01:59:50;12.70;99.90
22813;DHT22;11573;51.334;3.244;2023-05-20T02:02:17;12.70;99.90
22813;DHT22;11573;51.334;3.244;2023-05-20T02:04:45;12.70;99.90
22813;DHT22;11573;51.334;3.244;2023-05-20T02:07:15;12.70;99.90
22813;DHT22;11573;51.334;3.244;2023-05-20T02:09:45;12.70;99.90
22813;DHT22;11573;51.334;3.244;2023-05-20T02:12:12;12.70;99.90
22813;DHT22;11573;51.334;3.244;2023-05-20T02:14:43;12.70;99.90
22813;DHT22;11573;51.334;3.244;2023-05-20T02:17:11;12.70;99.90
22813;DHT22;11573;51.334;3.244;2023-05-20T02:19:41;12.70;99.90
22813;DHT22;11573;51.334;3.244;2023-05-20T02:22:08;12.70;99.90
22813;DHT22;11573;51.334;3.244;2023-05-20T02:24:35;12.70;99.90
22813;DHT22;11573;51.334;3.244;2023-05-20T02:27:02;12.70;99.90
22813;DHT22;11573;51.334;3.244;2023-05-20T02:29:32;12.70;99.90
22813;DHT22;11573;51.334;3.244;2023-05-20T02:31:59;12.70;99.90
22813;DHT22;11573;51.334;3.244;2023-05-20T02:34:27;12.60;99.90
22813;DHT22;11573;51.334;3.244;2023-05-20T02:36:56;12.60;99.90
22813;DHT22;11573;51.334;3.244;2023-05-20T02:39:23;12.60;99.90
22813;DHT22;11573;51.334;3.244;2023-05-20T02:41:50;12.60;99.90
22813;DHT22;11573;51.334;3.244;2023-05-20T02:44:17;12.60;99.90
22813;DHT22;11573;51.334;3.244;2023-05-20T02:46:44;12.60;99.90
22813;DHT22;11573;51.334;3.244;2023-05-20T02:49:11;12.60;99.90
22813;DHT22;11573;51.334;3.244;2023-05-20T02:51:39;12.60;99.90
22813;DHT22;11573;51.334;3.244;2023-05-20T02:54:06;12.60;99.90
22813;DHT22;11573;51.334;3.244;2023-05-20T02:56:33;12.60;99.90
22813;DHT22;11573;51.334;3.244;2023-05-20T02:59:01;12.50;99.90
22813;DHT22;11573;51.334;3.244;2023-05-20T03:01:29;12.50;99.90
22813;DHT22;11573;51.334;3.244;2023-05-20T03:03:56;12.50;99.90
22813;DHT22;11573;51.334;3.244;2023-05-20T03:06:24;12.50;99.90
22813;DHT22;11573;51.334;3.244;2023-05-20T03:08:51;12.50;99.90
22813;DHT22;11573;51.334;3.244;2023-05-20T03:11:19;12.50;99.90
22813;DHT22;11573;51.334;3.244;2023-05-20T03:13:47;12.50;99.90
22813;DHT22;11573;51.334;3.244;2023-05-20T03:16:16;12.50;99.90
22813;DHT22;11573;51.334;3.244;2023-05-20T03:18:44;12.50;99.90
22813;DHT22;11573;51.334;3.244;2023-05-20T03:21:12;12.50;99.90
22813;DHT22;11573;51.334;3.244;2023-05-20T03:23:39;12.50;99.90
22813;DHT22;11573;51.334;3.244;2023-05-20T03:26:07;12.50;99.90
22813;DHT22;11573;51.334;3.244;2023-05-20T03:28:35;12.50;99.90
22813;DHT22;11573;51.334;3.244;2023-05-20T03:31:02;12.50;99.90
22813;DHT22;11573;51.334;3.244;2023-05-20T03:33:32;12.50;99.90
22813;DHT22;11573;51.334;3.244;2023-05-20T03:36:00;12.50;99.90
22813;DHT22;11573;51.334;3.244;2023-05-20T03:38:27;12.50;99.90
22813;DHT22;11573;51.334;3.244;2023-05-20T03:40:54;12.50;99.90
22813;DHT22;11573;51.334;3.244;2023-05-20T03:43:21;12.50;99.90
22813;DHT22;11573;51.334;3.244;2023-05-20T03:45:48;12.50;99.90
22813;DHT22;11573;51.334;3.244;2023-05-20T03:48:15;12.50;99.90
22813;DHT22;11573;51.334;3.244;2023-05-20T03:50:42;12.40;99.90
22813;DHT22;11573;51.334;3.244;2023-05-20T03:53:09;12.40;99.90
22813;DHT22;11573;51.334;3.244;2023-05-20T03:55:40;12.50;99.90
22813;DHT22;11573;51.334;3.244;2023-05-20T03:58:08;12.50;99.90
22813;DHT22;11573;51.334;3.244;2023-05-20T04:00:35;12.50;99.90
22813;DHT22;11573;51.334;3.244;2023-05-20T04:03:02;12.50;99.90
22813;DHT22;11573;51.334;3.244;2023-05-20T04:05:30;12.50;99.90
22813;DHT22;11573;51.334;3.244;2023-05-20T04:07:59;12.50;99.90
22813;DHT22;11573;51.334;3.244;2023-05-20T04:10:26;12.50;99.90
22813;DHT22;11573;51.334;3.244;2023-05-20T04:12:53;12.60;99.90
22813;DHT22;11573;51.334;3.244;2023-05-20T04:15:22;12.60;99.90
22813;DHT22;11573;51.334;3.244;2023-05-20T04:17:54;12.60;99.90
22813;DHT22;11573;51.334;3.244;2023-05-20T04:20:21;12.70;99.90
22813;DHT22;11573;51.334;3.244;2023-05-20T04:22:52;12.80;99.90
22813;DHT22;11573;51.334;3.244;2023-05-20T04:25:20;13.10;99.90
22813;DHT22;11573;51.334;3.244;2023-05-20T04:27:48;13.60;99.90
22813;DHT22;11573;51.334;3.244;2023-05-20T04:30:15;14.10;99.90
22813;DHT22;11573;51.334;3.244;2023-05-20T04:32:44;14.50;99.90
22813;DHT22;11573;51.334;3.244;2023-05-20T04:35:11;14.80;99.90
22813;DHT22;11573;51.334;3.244;2023-05-20T04:37:42;15.10;99.90
22813;DHT22;11573;51.334;3.244;2023-05-20T04:40:16;15.50;99.90
22813;DHT22;11573;51.334;3.244;2023-05-20T04:42:43;15.90;99.90
22813;DHT22;11573;51.334;3.244;2023-05-20T04:45:11;15.80;99.90
22813;DHT22;11573;51.334;3.244;2023-05-20T04:47:40;16.00;99.90
22813;DHT22;11573;51.334;3.244;2023-05-20T04:50:08;15.70;99.90
22813;DHT22;11573;51.334;3.244;2023-05-20T04:52:41;15.90;99.90
22813;DHT22;11573;51.334;3.244;2023-05-20T04:55:10;15.70;99.90
22813;DHT22;11573;51.334;3.244;2023-05-20T04:57:38;15.40;99.90
22813;DHT22;11573;51.334;3.244;2023-05-20T05:00:10;14.90;99.90
22813;DHT22;11573;51.334;3.244;2023-05-20T05:02:38;14.40;99.90
22813;DHT22;11573;51.334;3.244;2023-05-20T05:05:05;14.20;99.90
22813;DHT22;11573;51.334;3.244;2023-05-20T05:07:33;14.10;99.90
22813;DHT22;11573;51.334;3.244;2023-05-20T05:10:00;14.20;99.90
22813;DHT22;11573;51.334;3.244;2023-05-20T05:12:29;14.10;99.90
22813;DHT22;11573;51.334;3.244;2023-05-20T05:14:57;14.20;99.90
22813;DHT22;11573;51.334;3.244;2023-05-20T05:17:26;14.20;99.90
22813;DHT22;11573;51.334;3.244;2023-05-20T05:19:55;14.40;99.90
22813;DHT22;11573;51.334;3.244;2023-05-20T05:22:23;14.70;99.90
22813;DHT22;11573;51.334;3.244;2023-05-20T05:24:50;15.20;99.90
22813;DHT22;11573;51.334;3.244;2023-05-20T05:27:17;16.00;99.90
22813;DHT22;11573;51.334;3.244;2023-05-20T05:29:44;16.50;99.90
22813;DHT22;11573;51.334;3.244;2023-05-20T05:32:11;16.80;99.90
22813;DHT22;11573;51.334;3.244;2023-05-20T05:34:38;17.70;99.90
22813;DHT22;11573;51.334;3.244;2023-05-20T05:37:05;17.80;99.90
22813;DHT22;11573;51.334;3.244;2023-05-20T05:39:33;17.70;99.90
22813;DHT22;11573;51.334;3.244;2023-05-20T05:42:04;17.70;99.90
22813;DHT22;11573;51.334;3.244;2023-05-20T05:44:32;18.00;99.90
22813;DHT22;11573;51.334;3.244;2023-05-20T05:46:59;18.00;99.90
22813;DHT22;11573;51.334;3.244;2023-05-20T05:49:26;17.10;99.90
22813;DHT22;11573;51.334;3.244;2023-05-20T05:51:53;16.10;99.90
22813;DHT22;11573;51.334;3.244;2023-05-20T05:54:20;15.60;99.90
22813;DHT22;11573;51.334;3.244;2023-05-20T05:56:52;15.10;99.90
22813;DHT22;11573;51.334;3.244;2023-05-20T05:59:20;14.70;99.90
22813;DHT22;11573;51.334;3.244;2023-05-20T06:01:47;14.40;99.90
22813;DHT22;11573;51.334;3.244;2023-05-20T06:04:15;14.30;99.90
22813;DHT22;11573;51.334;3.244;2023-05-20T06:06:42;14.30;99.90
22813;DHT22;11573;51.334;3.244;2023-05-20T06:09:09;14.30;99.90
22813;DHT22;11573;51.334;3.244;2023-05-20T06:11:36;14.30;99.90
22813;DHT22;11573;51.334;3.244;2023-05-20T06:14:03;14.20;99.90
22813;DHT22;11573;51.334;3.244;2023-05-20T06:16:30;14.20;99.90
22813;DHT22;11573;51.334;3.244;2023-05-20T06:18:58;14.30;99.90
22813;DHT22;11573;51.334;3.244;2023-05-20T06:21:31;14.40;99.90
22813;DHT22;11573;51.334;3.244;2023-05-20T06:23:58;14.60;99.90
22813;DHT22;11573;51.334;3.244;2023-05-20T06:26:25;14.60;99.90
22813;DHT22;11573;51.334;3.244;2023-05-20T06:28:52;14.50;99.90
22813;DHT22;11573;51.334;3.244;2023-05-20T06:31:19;14.60;99.90
22813;DHT22;11573;51.334;3.244;2023-05-20T06:33:47;14.60;99.90
22813;DHT22;11573;51.334;3.244;2023-05-20T06:36:14;14.60;99.90
22813;DHT22;11573;51.334;3.244;2023-05-20T06:38:41;14.70;99.90
22813;DHT22;11573;51.334;3.244;2023-05-20T06:41:10;14.60;99.90
22813;DHT22;11573;51.334;3.244;2023-05-20T06:43:38;14.90;99.90
22813;DHT22;11573;51.334;3.244;2023-05-20T06:46:28;14.80;99.90
22813;DHT22;11573;51.334;3.244;2023-05-20T06:49:04;14.90;99.90
22813;DHT22;11573;51.334;3.244;2023-05-20T06:51:31;15.00;99.90
22813;DHT22;11573;51.334;3.244;2023-05-20T06:53:59;15.10;99.90
22813;DHT22;11573;51.334;3.244;2023-05-20T06:56:26;15.10;99.90
22813;DHT22;11573;51.334;3.244;2023-05-20T06:58:54;15.00;99.90
22813;DHT22;11573;51.334;3.244;2023-05-20T07:01:21;15.00;99.90
22813;DHT22;11573;51.334;3.244;2023-05-20T07:03:48;14.90;99.90
22813;DHT22;11573;51.334;3.244;2023-05-20T07:06:16;14.90;99.90
22813;DHT22;11573;51.334;3.244;2023-05-20T07:08:43;14.90;99.90
22813;DHT22;11573;51.334;3.244;2023-05-20T07:11:11;14.90;99.90
22813;DHT22;11573;51.334;3.244;2023-05-20T07:13:38;15.00;99.90
22813;DHT22;11573;51.334;3.244;2023-05-20T07:16:05;15.10;99.90
22813;DHT22;11573;51.334;3.244;2023-05-20T07:18:34;15.00;99.90
22813;DHT22;11573;51.334;3.244;2023-05-20T07:21:02;15.20;99.90
22813;DHT22;11573;51.334;3.244;2023-05-20T07:23:55;15.20;99.90
22813;DHT22;11573;51.334;3.244;2023-05-20T07:26:22;15.20;99.90
22813;DHT22;11573;51.334;3.244;2023-05-20T07:28:49;15.20;99.90
22813;DHT22;11573;51.334;3.244;2023-05-20T07:31:17;15.30;99.90
22813;DHT22;11573;51.334;3.244;2023-05-20T07:33:44;15.50;99.90
22813;DHT22;11573;51.334;3.244;2023-05-20T07:36:11;15.50;99.90
22813;DHT22;11573;51.334;3.244;2023-05-20T07:38:40;15.60;99.90
22813;DHT22;11573;51.334;3.244;2023-05-20T07:41:23;15.70;99.90
22813;DHT22;11573;51.334;3.244;2023-05-20T07:43:49;15.70;99.90
22813;DHT22;11573;51.334;3.244;2023-05-20T07:46:17;15.70;99.90
22813;DHT22;11573;51.334;3.244;2023-05-20T07:48:46;15.70;99.90
22813;DHT22;11573;51.334;3.244;2023-05-20T07:51:14;15.60;99.90
22813;DHT22;11573;51.334;3.244;2023-05-20T07:53:41;15.80;99.90
22813;DHT22;11573;51.334;3.244;2023-05-20T07:56:08;15.90;99.90
22813;DHT22;11573;51.334;3.244;2023-05-20T07:58:36;15.90;99.90
22813;DHT22;11573;51.334;3.244;2023-05-20T08:01:03;16.00;99.90
22813;DHT22;11573;51.334;3.244;2023-05-20T08:03:30;16.00;99.90
22813;DHT22;11573;51.334;3.244;2023-05-20T08:06:05;16.10;99.90
22813;DHT22;11573;51.334;3.244;2023-05-20T08:08:32;15.90;99.90
22813;DHT22;11573;51.334;3.244;2023-05-20T08:11:06;15.80;99.90
22813;DHT22;11573;51.334;3.244;2023-05-20T08:13:34;15.70;99.90
22813;DHT22;11573;51.334;3.244;2023-05-20T08:16:02;15.80;99.90
22813;DHT22;11573;51.334;3.244;2023-05-20T08:18:34;15.90;99.90
22813;DHT22;11573;51.334;3.244;2023-05-20T08:21:05;15.80;99.90
22813;DHT22;11573;51.334;3.244;2023-05-20T08:23:34;15.80;99.90
22813;DHT22;11573;51.334;3.244;2023-05-20T08:26:06;15.80;99.90
22813;DHT22;11573;51.334;3.244;2023-05-20T08:28:36;15.70;99.90
22813;DHT22;11573;51.334;3.244;2023-05-20T08:31:04;15.60;99.90
22813;DHT22;11573;51.334;3.244;2023-05-20T08:33:31;15.60;99.90
22813;DHT22;11573;51.334;3.244;2023-05-20T08:35:58;15.60;99.90
22813;DHT22;11573;51.334;3.244;2023-05-20T08:38:27;15.60;99.90
22813;DHT22;11573;51.334;3.244;2023-05-20T08:40:55;15.70;99.90
22813;DHT22;11573;51.334;3.244;2023-05-20T08:43:24;15.90;99.90
22813;DHT22;11573;51.334;3.244;2023-05-20T08:45:51;16.20;99.90
22813;DHT22;11573;51.334;3.244;2023-05-20T08:48:22;16.00;99.90
22813;DHT22;11573;51.334;3.244;2023-05-20T08:50:50;15.90;99.90
22813;DHT22;11573;51.334;3.244;2023-05-20T08:53:19;15.80;99.90
22813;DHT22;11573;51.334;3.244;2023-05-20T08:55:52;15.80;99.90
22813;DHT22;11573;51.334;3.244;2023-05-20T08:58:20;15.80;99.90
22813;DHT22;11573;51.334;3.244;2023-05-20T09:00:50;16.00;99.90
22813;DHT22;11573;51.334;3.244;2023-05-20T09:03:17;16.10;99.90
22813;DHT22;11573;51.334;3.244;2023-05-20T09:05:46;16.10;99.90
22813;DHT22;11573;51.334;3.244;2023-05-20T09:08:13;16.00;99.90
22813;DHT22;11573;51.334;3.244;2023-05-20T09:10:41;15.90;99.90
22813;DHT22;11573;51.334;3.244;2023-05-20T09:13:09;16.00;99.90
22813;DHT22;11573;51.334;3.244;2023-05-20T09:15:37;16.20;99.90
22813;DHT22;11573;51.334;3.244;2023-05-20T09:18:06;16.20;99.90
22813;DHT22;11573;51.334;3.244;2023-05-20T09:20:34;16.00;99.90
22813;DHT22;11573;51.334;3.244;2023-05-20T09:23:08;15.90;99.90
22813;DHT22;11573;51.334;3.244;2023-05-20T09:25:35;16.10;99.90
22813;DHT22;11573;51.334;3.244;2023-05-20T09:28:07;16.10;99.90
22813;DHT22;11573;51.334;3.244;2023-05-20T09:30:35;16.10;99.90
22813;DHT22;11573;51.334;3.244;2023-05-20T09:33:04;16.20;99.90
22813;DHT22;11573;51.334;3.244;2023-05-20T09:35:34;16.30;99.90
22813;DHT22;11573;51.334;3.244;2023-05-20T09:38:04;16.30;99.90
22813;DHT22;11573;51.334;3.244;2023-05-20T09:40:33;16.30;99.90
22813;DHT22;11573;51.334;3.244;2023-05-20T09:43:05;16.10;99.90
22813;DHT22;11573;51.334;3.244;2023-05-20T09:45:37;16.00;99.90
22813;DHT22;11573;51.334;3.244;2023-05-20T09:48:04;16.20;99.90
22813;DHT22;11573;51.334;3.244;2023-05-20T09:50:32;16.20;99.90
22813;DHT22;11573;51.334;3.244;2023-05-20T09:53:02;16.20;99.90
22813;DHT22;11573;51.334;3.244;2023-05-20T09:55:30;16.40;99.90
22813;DHT22;11573;51.334;3.244;2023-05-20T09:58:00;16.50;99.90
22813;DHT22;11573;51.334;3.244;2023-05-20T10:00:27;16.40;99.90
22813;DHT22;11573;51.334;3.244;2023-05-20T10:02:56;16.30;99.90
22813;DHT22;11573;51.334;3.244;2023-05-20T10:05:36;16.20;99.90
22813;DHT22;11573;51.334;3.244;2023-05-20T10:11:06;16.30;99.90
22813;DHT22;11573;51.334;3.244;2023-05-20T10:16:35;16.50;99.90
22813;DHT22;11573;51.334;3.244;2023-05-20T10:19:21;16.30;99.90
22813;DHT22;11573;51.334;3.244;2023-05-20T10:24:38;16.40;99.90
22813;DHT22;11573;51.334;3.244;2023-05-20T10:27:10;16.50;99.90
22813;DHT22;11573;51.334;3.244;2023-05-20T10:29:51;16.60;99.90
22813;DHT22;11573;51.334;3.244;2023-05-20T10:35:04;16.80;99.90
22813;DHT22;11573;51.334;3.244;2023-05-20T10:37:42;16.90;99.90
22813;DHT22;11573;51.334;3.244;2023-05-20T10:40:12;16.70;99.90
22813;DHT22;11573;51.334;3.244;2023-05-20T10:42:40;16.70;99.90
22813;DHT22;11573;51.334;3.244;2023-05-20T10:45:08;16.70;99.90
22813;DHT22;11573;51.334;3.244;2023-05-20T10:47:35;16.60;99.90
22813;DHT22;11573;51.334;3.244;2023-05-20T10:50:03;16.60;99.90
22813;DHT22;11573;51.334;3.244;2023-05-20T10:52:35;16.60;99.90
22813;DHT22;11573;51.334;3.244;2023-05-20T10:55:03;16.50;99.90
22813;DHT22;11573;51.334;3.244;2023-05-20T10:57:30;16.50;99.90
22813;DHT22;11573;51.334;3.244;2023-05-20T10:59:57;16.60;99.90
22813;DHT22;11573;51.334;3.244;2023-05-20T11:02:26;16.50;99.90
22813;DHT22;11573;51.334;3.244;2023-05-20T11:04:57;16.30;99.90
22813;DHT22;11573;51.334;3.244;2023-05-20T11:07:26;16.40;99.90
22813;DHT22;11573;51.334;3.244;2023-05-20T11:09:55;16.40;99.90
22813;DHT22;11573;51.334;3.244;2023-05-20T11:12:24;16.40;99.90
22813;DHT22;11573;51.334;3.244;2023-05-20T11:14:52;16.50;99.90
22813;DHT22;11573;51.334;3.244;2023-05-20T11:17:19;16.40;99.90
22813;DHT22;11573;51.334;3.244;2023-05-20T11:19:47;16.50;99.90
22813;DHT22;11573;51.334;3.244;2023-05-20T11:22:14;16.70;99.90
22813;DHT22;11573;51.334;3.244;2023-05-20T11:24:41;16.90;99.90
22813;DHT22;11573;51.334;3.244;2023-05-20T11:27:08;16.70;99.90
22813;DHT22;11573;51.334;3.244;2023-05-20T11:29:36;16.70;99.90
22813;DHT22;11573;51.334;3.244;2023-05-20T11:32:03;16.70;99.90
22813;DHT22;11573;51.334;3.244;2023-05-20T11:34:35;16.50;99.90
22813;DHT22;11573;51.334;3.244;2023-05-20T11:37:07;16.60;99.90
22813;DHT22;11573;51.334;3.244;2023-05-20T11:39:36;16.70;99.90
22813;DHT22;11573;51.334;3.244;2023-05-20T11:42:03;16.80;99.90
22813;DHT22;11573;51.334;3.244;2023-05-20T11:44:32;16.90;99.90
22813;DHT22;11573;51.334;3.244;2023-05-20T11:47:00;17.00;99.90
22813;DHT22;11573;51.334;3.244;2023-05-20T11:49:28;17.00;99.90
22813;DHT22;11573;51.334;3.244;2023-05-20T11:51:56;17.00;99.90
22813;DHT22;11573;51.334;3.244;2023-05-20T11:54:24;17.10;99.90
22813;DHT22;11573;51.334;3.244;2023-05-20T11:56:53;17.30;99.90
22813;DHT22;11573;51.334;3.244;2023-05-20T11:59:22;17.30;99.90
22813;DHT22;11573;51.334;3.244;2023-05-20T12:01:49;17.40;99.90
22813;DHT22;11573;51.334;3.244;2023-05-20T12:04:16;17.60;99.90
22813;DHT22;11573;51.334;3.244;2023-05-20T12:06:44;17.60;99.90
22813;DHT22;11573;51.334;3.244;2023-05-20T12:09:12;17.70;99.90
22813;DHT22;11573;51.334;3.244;2023-05-20T12:11:40;17.50;99.90
22813;DHT22;11573;51.334;3.244;2023-05-20T12:14:08;17.30;99.90
22813;DHT22;11573;51.334;3.244;2023-05-20T12:16:35;17.20;99.90
22813;DHT22;11573;51.334;3.244;2023-05-20T12:19:03;17.20;99.90
22813;DHT22;11573;51.334;3.244;2023-05-20T12:21:30;17.30;99.90
22813;DHT22;11573;51.334;3.244;2023-05-20T12:23:58;17.40;99.90
22813;DHT22;11573;51.334;3.244;2023-05-20T12:26:27;17.50;99.90
22813;DHT22;11573;51.334;3.244;2023-05-20T12:28:55;17.70;99.90
22813;DHT22;11573;51.334;3.244;2023-05-20T12:31:22;17.70;99.90
22813;DHT22;11573;51.334;3.244;2023-05-20T12:33:49;17.60;99.90
22813;DHT22;11573;51.334;3.244;2023-05-20T12:36:16;17.60;99.90
22813;DHT22;11573;51.334;3.244;2023-05-20T12:38:45;17.60;99.90
22813;DHT22;11573;51.334;3.244;2023-05-20T12:41:12;17.40;99.90
22813;DHT22;11573;51.334;3.244;2023-05-20T12:43:39;17.40;99.90
22813;DHT22;11573;51.334;3.244;2023-05-20T12:46:06;17.40;99.90
22813;DHT22;11573;51.334;3.244;2023-05-20T12:48:33;17.30;99.90
22813;DHT22;11573;51.334;3.244;2023-05-20T12:51:00;17.30;99.90
22813;DHT22;11573;51.334;3.244;2023-05-20T12:53:27;17.40;99.90
22813;DHT22;11573;51.334;3.244;2023-05-20T12:55:54;17.30;99.90
22813;DHT22;11573;51.334;3.244;2023-05-20T12:58:21;17.30;99.90
22813;DHT22;11573;51.334;3.244;2023-05-20T13:00:48;17.20;99.90
22813;DHT22;11573;51.334;3.244;2023-05-20T13:03:15;17.20;99.90
22813;DHT22;11573;51.334;3.244;2023-05-20T13:05:42;17.20;99.90
22813;DHT22;11573;51.334;3.244;2023-05-20T13:08:09;17.30;99.90
22813;DHT22;11573;51.334;3.244;2023-05-20T13:10:38;17.20;99.90
22813;DHT22;11573;51.334;3.244;2023-05-20T13:13:05;17.30;99.90
22813;DHT22;11573;51.334;3.244;2023-05-20T13:15:32;17.40;99.90
22813;DHT22;11573;51.334;3.244;2023-05-20T13:17:59;17.50;99.90
22813;DHT22;11573;51.334;3.244;2023-05-20T13:20:28;17.60;99.90
22813;DHT22;11573;51.334;3.244;2023-05-20T13:22:55;17.50;99.90
22813;DHT22;11573;51.334;3.244;2023-05-20T13:25:22;17.60;99.90
22813;DHT22;11573;51.334;3.244;2023-05-20T13:27:49;17.70;99.90
22813;DHT22;11573;51.334;3.244;2023-05-20T13:30:16;17.40;99.90
22813;DHT22;11573;51.334;3.244;2023-05-20T13:32:43;17.20;99.90
22813;DHT22;11573;51.334;3.244;2023-05-20T13:35:10;17.00;99.90
22813;DHT22;11573;51.334;3.244;2023-05-20T13:37:38;17.00;99.90
22813;DHT22;11573;51.334;3.244;2023-05-20T13:40:06;17.00;99.90
22813;DHT22;11573;51.334;3.244;2023-05-20T13:42:33;17.10;99.90
22813;DHT22;11573;51.334;3.244;2023-05-20T13:45:00;17.20;99.90
22813;DHT22;11573;51.334;3.244;2023-05-20T13:47:27;17.30;99.90
22813;DHT22;11573;51.334;3.244;2023-05-20T13:49:54;17.50;99.90
22813;DHT22;11573;51.334;3.244;2023-05-20T13:52:21;17.60;99.90
22813;DHT22;11573;51.334;3.244;2023-05-20T13:54:48;17.60;99.90
22813;DHT22;11573;51.334;3.244;2023-05-20T13:57:15;17.80;99.90
22813;DHT22;11573;51.334;3.244;2023-05-20T13:59:42;17.80;99.90
22813;DHT22;11573;51.334;3.244;2023-05-20T14:02:09;17.90;99.90
22813;DHT22;11573;51.334;3.244;2023-05-20T14:04:37;17.80;99.90
22813;DHT22;11573;51.334;3.244;2023-05-20T14:07:06;17.80;99.90
22813;DHT22;11573;51.334;3.244;2023-05-20T14:09:35;17.60;99.90
22813;DHT22;11573;51.334;3.244;2023-05-20T14:12:02;17.40;99.90
22813;DHT22;11573;51.334;3.244;2023-05-20T14:14:29;17.40;99.90
22813;DHT22;11573;51.334;3.244;2023-05-20T14:16:56;17.50;99.90
22813;DHT22;11573;51.334;3.244;2023-05-20T14:19:25;17.70;99.90
22813;DHT22;11573;51.334;3.244;2023-05-20T14:21:52;17.80;99.90
22813;DHT22;11573;51.334;3.244;2023-05-20T14:24:19;17.70;99.90
22813;DHT22;11573;51.334;3.244;2023-05-20T14:26:49;17.80;99.90
22813;DHT22;11573;51.334;3.244;2023-05-20T14:29:16;17.90;99.90
22813;DHT22;11573;51.334;3.244;2023-05-20T14:31:43;18.10;99.90
22813;DHT22;11573;51.334;3.244;2023-05-20T14:34:11;18.20;99.90
22813;DHT22;11573;51.334;3.244;2023-05-20T14:36:38;18.20;99.90
22813;DHT22;11573;51.334;3.244;2023-05-20T14:39:05;17.80;99.90
22813;DHT22;11573;51.334;3.244;2023-05-20T14:41:32;17.80;99.90
22813;DHT22;11573;51.334;3.244;2023-05-20T14:43:58;17.80;99.90
22813;DHT22;11573;51.334;3.244;2023-05-20T14:46:25;17.60;99.90
22813;DHT22;11573;51.334;3.244;2023-05-20T14:48:52;17.50;99.90
22813;DHT22;11573;51.334;3.244;2023-05-20T14:51:19;17.70;99.90
22813;DHT22;11573;51.334;3.244;2023-05-20T14:53:46;17.90;99.90
22813;DHT22;11573;51.334;3.244;2023-05-20T14:56:13;17.90;99.90
22813;DHT22;11573;51.334;3.244;2023-05-20T14:58:40;17.90;99.90
22813;DHT22;11573;51.334;3.244;2023-05-20T15:01:07;17.80;99.90
22813;DHT22;11573;51.334;3.244;2023-05-20T15:03:34;18.00;99.90
22813;DHT22;11573;51.334;3.244;2023-05-20T15:06:04;18.10;99.90
22813;DHT22;11573;51.334;3.244;2023-05-20T15:08:31;17.80;99.90
22813;DHT22;11573;51.334;3.244;2023-05-20T15:10:58;17.90;99.90
22813;DHT22;11573;51.334;3.244;2023-05-20T15:13:25;17.70;99.90
22813;DHT22;11573;51.334;3.244;2023-05-20T15:15:52;17.60;99.90
22813;DHT22;11573;51.334;3.244;2023-05-20T15:18:19;17.50;99.90
22813;DHT22;11573;51.334;3.244;2023-05-20T15:20:46;17.40;99.90
22813;DHT22;11573;51.334;3.244;2023-05-20T15:23:13;17.40;99.90
22813;DHT22;11573;51.334;3.244;2023-05-20T15:25:40;17.30;99.90
22813;DHT22;11573;51.334;3.244;2023-05-20T15:28:07;17.50;99.90
22813;DHT22;11573;51.334;3.244;2023-05-20T15:30:34;17.70;99.90
22813;DHT22;11573;51.334;3.244;2023-05-20T15:33:01;17.80;99.90
22813;DHT22;11573;51.334;3.244;2023-05-20T15:35:29;17.80;99.90
22813;DHT22;11573;51.334;3.244;2023-05-20T15:37:56;17.80;99.90
22813;DHT22;11573;51.334;3.244;2023-05-20T15:40:23;17.70;99.90
22813;DHT22;11573;51.334;3.244;2023-05-20T15:42:49;17.90;99.90
22813;DHT22;11573;51.334;3.244;2023-05-20T15:45:17;18.00;99.90
22813;DHT22;11573;51.334;3.244;2023-05-20T15:47:44;17.90;99.90